Time;durP1;ratioP1;P1;durP2;ratioP2;P2;SDS_P1;SDS_P2;PMS_P1;PMS_P2;Temp;Humidity;BMP_temperature;BMP_pressure;BME280_temperature;BME280_humidity;BME280_pressure;Samples;Min_cycle;Max_cycle;Signal;HPM_P1;HPM_P2
2019/09/16 00:00:04;;;;;;;4.7;4.3;;;;;;;18.24;89.61816;965.8401;;;;
2019/09/16 00:02:29;;;;;;;4.9;4.4;;;;;;;18.16;89.92969;965.8362;;;;
2019/09/16 00:04:55;;;;;;;5.9;5.1;;;;;;;18.17;89.87207;965.8453;;;;
2019/09/16 00:07:20;;;;;;;5.2;4.8;;;;;;;18.2;89.98535;965.8625;;;;
2019/09/16 00:09:45;;;;;;;5.2;4.7;;;;;;;18.14;90.40527;965.8544;;;;
2019/09/16 00:12:11;;;;;;;5.8;5.2;;;;;;;18.13;91.05957;965.866;;;;
2019/09/16 00:14:36;;;;;;;5;4.5;;;;;;;18.14;89.92578;965.8725;;;;
2019/09/16 00:17:02;;;;;;;5.7;5.1;;;;;;;18.01;91.05859;965.8701;;;;
2019/09/16 00:19:27;;;;;;;5.3;4.9;;;;;;;17.97;90.64941;965.837;;;;
2019/09/16 00:21:52;;;;;;;5.6;5.1;;;;;;;17.85;91.44727;965.8022;;;;
2019/09/16 00:24:18;;;;;;;5.3;4.8;;;;;;;17.75;91.95313;965.7805;;;;
2019/09/16 00:26:43;;;;;;;5;4.5;;;;;;;17.81;91.0166;965.7413;;;;
2019/09/16 00:29:08;;;;;;;5.2;4.7;;;;;;;17.84;91.58398;965.7314;;;;
2019/09/16 00:31:34;;;;;;;5.3;4.8;;;;;;;17.8;91.66992;965.7493;;;;
2019/09/16 00:33:59;;;;;;;5.4;4.9;;;;;;;17.8;90.55762;965.7542;;;;
2019/09/16 00:36:24;;;;;;;5;4.5;;;;;;;17.76;91.5918;965.7993;;;;
2019/09/16 00:38:49;;;;;;;4.5;4.1;;;;;;;17.79;91.46875;965.8005;;;;
2019/09/16 00:41:14;;;;;;;5.1;4.4;;;;;;;17.81;90.93457;965.7454;;;;
2019/09/16 00:43:39;;;;;;;4.7;4.3;;;;;;;17.83;90.22656;965.7034;;;;
2019/09/16 00:46:04;;;;;;;6;4.5;;;;;;;17.82;90.49121;965.714;;;;
2019/09/16 00:48:29;;;;;;;4.8;4.4;;;;;;;17.75;90.81836;965.6783;;;;
2019/09/16 00:50:54;;;;;;;5.3;4.2;;;;;;;17.72;91.26855;965.6262;;;;
2019/09/16 00:53:19;;;;;;;6.2;4.5;;;;;;;17.71;90.67969;965.6667;;;;
2019/09/16 00:55:44;;;;;;;5.2;4.6;;;;;;;17.76;90.70117;965.6245;;;;
2019/09/16 00:58:09;;;;;;;4.7;4.3;;;;;;;17.67;91.07031;965.6368;;;;
2019/09/16 01:00:35;;;;;;;5.1;4.6;;;;;;;17.71;90.32715;965.5345;;;;
2019/09/16 01:03:00;;;;;;;6.4;5;;;;;;;17.62;90.55664;965.5744;;;;
2019/09/16 01:05:25;;;;;;;5.6;5;;;;;;;17.65;90.36328;965.5966;;;;
2019/09/16 01:07:50;;;;;;;7.5;5.5;;;;;;;17.53;91.63672;965.6212;;;;
2019/09/16 01:10:16;;;;;;;5.7;5.2;;;;;;;17.52;91.57715;965.639;;;;
2019/09/16 01:12:41;;;;;;;5.6;5.1;;;;;;;17.51;91.24707;965.6713;;;;
2019/09/16 01:15:06;;;;;;;5.7;5.2;;;;;;;17.51;91.24512;965.6269;;;;
2019/09/16 01:17:32;;;;;;;6.5;5.8;;;;;;;17.36;92.05762;965.6241;;;;
2019/09/16 01:19:57;;;;;;;6.3;5.3;;;;;;;17.44;90.11035;965.6415;;;;
2019/09/16 01:22:22;;;;;;;5.5;5;;;;;;;17.45;89.84277;965.593;;;;
2019/09/16 01:24:47;;;;;;;6.3;5.7;;;;;;;17.35;89.9043;965.5521;;;;
2019/09/16 01:27:12;;;;;;;6.7;5.3;;;;;;;17.37;90.23535;965.5119;;;;
2019/09/16 01:29:37;;;;;;;7.3;5.6;;;;;;;17.37;89.4873;965.4978;;;;
2019/09/16 01:32:03;;;;;;;5.8;5.1;;;;;;;17.44;89.29199;965.4686;;;;
2019/09/16 01:34:28;;;;;;;5.7;5.2;;;;;;;17.31;90.08301;965.4879;;;;
2019/09/16 01:36:53;;;;;;;6.6;5.7;;;;;;;17.27;90.11035;965.4639;;;;
2019/09/16 01:39:18;;;;;;;6.6;5.6;;;;;;;17.28;90.6377;965.4177;;;;
2019/09/16 01:41:44;;;;;;;6.5;5.9;;;;;;;17.25;90.87793;965.4003;;;;
2019/09/16 01:44:09;;;;;;;6.1;5.5;;;;;;;17.22;91.09277;965.3517;;;;
2019/09/16 01:46:34;;;;;;;6.4;5.9;;;;;;;17.17;90.03027;965.3219;;;;
2019/09/16 01:48:59;;;;;;;6.2;5.7;;;;;;;17.19;91.00293;965.3369;;;;
2019/09/16 01:51:25;;;;;;;5.8;5.3;;;;;;;17.19;90.44434;965.3236;;;;
2019/09/16 01:53:50;;;;;;;6.2;5.2;;;;;;;17.17;90.06836;965.3147;;;;
2019/09/16 01:56:15;;;;;;;6.9;5.8;;;;;;;17.07;89.85938;965.3117;;;;
2019/09/16 01:58:40;;;;;;;7.4;6.1;;;;;;;17;90.19531;965.2292;;;;
2019/09/16 02:01:05;;;;;;;6.1;5.5;;;;;;;17.15;90.44824;965.2643;;;;
2019/09/16 02:03:30;;;;;;;5.8;5.3;;;;;;;17.14;90.36328;965.2378;;;;
2019/09/16 02:05:56;;;;;;;6.2;5.6;;;;;;;17.14;90.12988;965.2344;;;;
2019/09/16 02:08:21;;;;;;;6.2;5.3;;;;;;;17.13;90.38477;965.2427;;;;
2019/09/16 02:10:47;;;;;;;6.3;5.7;;;;;;;17.06;90.8623;965.1998;;;;
2019/09/16 02:13:12;;;;;;;6.2;5.6;;;;;;;17.03;90.46973;965.1898;;;;
2019/09/16 02:15:37;;;;;;;5.8;5.3;;;;;;;17.08;89.87109;965.1569;;;;
2019/09/16 02:18:03;;;;;;;6.6;5.9;;;;;;;17.04;90.25098;965.1708;;;;
2019/09/16 02:20:28;;;;;;;6.6;5.6;;;;;;;17;90.47363;965.1552;;;;
2019/09/16 02:22:53;;;;;;;7.7;6.4;;;;;;;16.81;90.6582;965.1859;;;;
2019/09/16 02:25:18;;;;;;;7.1;6.4;;;;;;;16.82;91.38477;965.1463;;;;
2019/09/16 02:27:43;;;;;;;8.7;5.9;;;;;;;16.71;92.03906;965.1487;;;;
2019/09/16 02:30:09;;;;;;;6.6;6;;;;;;;16.7;91.76855;965.0748;;;;
2019/09/16 02:32:34;;;;;;;6.7;6.1;;;;;;;16.68;92.10352;965.1166;;;;
2019/09/16 02:34:59;;;;;;;6.8;6.1;;;;;;;16.73;92.22754;965.1309;;;;
2019/09/16 02:37:24;;;;;;;7.2;6.1;;;;;;;16.72;91.63281;965.1713;;;;
2019/09/16 02:39:49;;;;;;;6.7;6.1;;;;;;;16.72;91.25684;965.1257;;;;
2019/09/16 02:42:15;;;;;;;6.7;6;;;;;;;16.72;91.36426;965.1638;;;;
2019/09/16 02:44:40;;;;;;;7;6;;;;;;;16.85;90.70117;965.1267;;;;
2019/09/16 02:47:05;;;;;;;7.3;6.5;;;;;;;16.68;91.17969;965.0845;;;;
2019/09/16 02:49:31;;;;;;;6.8;6.1;;;;;;;16.69;91.50781;965.1152;;;;
2019/09/16 02:51:56;;;;;;;6.6;6;;;;;;;16.54;91.95508;965.0747;;;;
2019/09/16 02:54:21;;;;;;;6.4;5.9;;;;;;;16.57;91.99707;965.0609;;;;
2019/09/16 02:56:46;;;;;;;7;6.3;;;;;;;16.66;91.49121;965.0064;;;;
2019/09/16 02:59:11;;;;;;;6.5;5.9;;;;;;;16.59;91.70703;965.0208;;;;
2019/09/16 03:01:37;;;;;;;6.8;6.2;;;;;;;16.63;91.22852;965.0276;;;;
2019/09/16 03:04:02;;;;;;;7.3;6.6;;;;;;;16.55;91.81836;965.0461;;;;
2019/09/16 03:06:27;;;;;;;7.1;6.5;;;;;;;16.53;91.7666;965.0106;;;;
2019/09/16 03:08:52;;;;;;;7.4;6.7;;;;;;;16.47;92.02148;964.9897;;;;
2019/09/16 03:11:17;;;;;;;7.3;6.6;;;;;;;16.5;92.55371;964.9808;;;;
2019/09/16 03:13:43;;;;;;;6.7;6.1;;;;;;;16.53;91.49805;964.9678;;;;
2019/09/16 03:16:08;;;;;;;7.1;6.4;;;;;;;16.48;91.61719;964.9386;;;;
2019/09/16 03:18:33;;;;;;;7.2;6.4;;;;;;;16.45;91.62109;964.9228;;;;
2019/09/16 03:20:58;;;;;;;6.8;6.2;;;;;;;16.46;91.69434;964.8738;;;;
2019/09/16 03:23:23;;;;;;;7.1;6.4;;;;;;;16.43;92.11914;964.8769;;;;
2019/09/16 03:25:48;;;;;;;7.4;6.4;;;;;;;16.4;92.25293;964.8389;;;;
2019/09/16 03:28:14;;;;;;;7.9;7.1;;;;;;;16.42;92.59668;964.7527;;;;
2019/09/16 03:30:39;;;;;;;7;6.3;;;;;;;16.44;91.7959;964.6819;;;;
2019/09/16 03:33:04;;;;;;;7.4;6.7;;;;;;;16.53;91.64941;964.6641;;;;
2019/09/16 03:35:30;;;;;;;8.3;7.4;;;;;;;16.49;91.11719;964.6369;;;;
2019/09/16 03:37:55;;;;;;;8.6;7;;;;;;;16.42;91.60352;964.6586;;;;
2019/09/16 03:40:20;;;;;;;8.3;7.6;;;;;;;16.38;91.98145;964.5984;;;;
2019/09/16 03:42:45;;;;;;;7.7;7;;;;;;;16.35;92.14844;964.5959;;;;
2019/09/16 03:45:11;;;;;;;8.6;7.7;;;;;;;16.31;92.58398;964.5884;;;;
2019/09/16 03:47:36;;;;;;;8.2;7.5;;;;;;;16.38;91.91113;964.6396;;;;
2019/09/16 03:50:01;;;;;;;8.8;7.9;;;;;;;16.28;92.03027;964.5513;;;;
2019/09/16 03:52:26;;;;;;;8.6;7.8;;;;;;;16.22;92.18066;964.588;;;;
2019/09/16 03:54:52;;;;;;;8.4;7.6;;;;;;;16.29;92.03223;964.5634;;;;
2019/09/16 03:57:17;;;;;;;8.3;7.4;;;;;;;16.25;92.34766;964.5413;;;;
2019/09/16 03:59:42;;;;;;;8.3;7.5;;;;;;;16.26;91.89844;964.5889;;;;
2019/09/16 04:02:29;;;;;;;8.6;7.8;;;;;;;16.25;92.32617;964.575;;;;
2019/09/16 04:04:54;;;;;;;10.4;8.3;;;;;;;16.21;91.79395;964.5219;;;;
2019/09/16 04:07:19;;;;;;;8.3;7.4;;;;;;;16.24;91.86914;964.5623;;;;
2019/09/16 04:09:44;;;;;;;8.2;7.3;;;;;;;16.17;92.16895;964.5769;;;;
2019/09/16 04:12:09;;;;;;;8.8;7.9;;;;;;;16.1;92.73926;964.5684;;;;
2019/09/16 04:14:34;;;;;;;8.2;7.4;;;;;;;16.12;92.85938;964.5374;;;;
2019/09/16 04:16:59;;;;;;;8.4;7.6;;;;;;;16.08;93.21094;964.5411;;;;
2019/09/16 04:19:24;;;;;;;8.9;8.1;;;;;;;16.09;92.7002;964.5508;;;;
2019/09/16 04:21:49;;;;;;;9.1;7.8;;;;;;;16.04;92.66699;964.5162;;;;
2019/09/16 04:24:15;;;;;;;8.6;7.8;;;;;;;16.04;92.91016;964.4752;;;;
2019/09/16 04:26:40;;;;;;;8.8;8;;;;;;;15.96;92.81348;964.5131;;;;
2019/09/16 04:29:05;;;;;;;8.6;7.8;;;;;;;15.97;93.35156;964.4548;;;;
2019/09/16 04:31:30;;;;;;;9.3;8.4;;;;;;;15.99;92.91211;964.4944;;;;
2019/09/16 04:33:55;;;;;;;8.9;8.1;;;;;;;16.03;92.5957;964.4637;;;;
2019/09/16 04:36:20;;;;;;;9;8.1;;;;;;;15.96;92.75293;964.4606;;;;
2019/09/16 04:38:45;;;;;;;9.2;8.2;;;;;;;15.84;93.35742;964.5174;;;;
2019/09/16 04:41:10;;;;;;;8.5;7.6;;;;;;;15.86;93.35156;964.5045;;;;
2019/09/16 04:43:35;;;;;;;9.7;8;;;;;;;15.91;93.17676;964.5181;;;;
2019/09/16 04:46:01;;;;;;;8.5;7.6;;;;;;;15.85;93.36133;964.4788;;;;
2019/09/16 04:48:26;;;;;;;8.9;8;;;;;;;15.83;93.1709;964.4673;;;;
2019/09/16 04:53:17;;;;;;;8.7;7.6;;;;;;;15.86;93.09375;964.4453;;;;
2019/09/16 04:55:42;;;;;;;9.1;8.2;;;;;;;15.8;93.20996;964.4868;;;;
2019/09/16 04:58:07;;;;;;;8.7;7.8;;;;;;;15.81;93.5166;964.4703;;;;
2019/09/16 05:00:32;;;;;;;9.2;8.3;;;;;;;15.78;93.49609;964.4299;;;;
2019/09/16 05:02:58;;;;;;;9.4;8.5;;;;;;;15.81;93.82715;964.4679;;;;
2019/09/16 05:05:23;;;;;;;9.2;7.6;;;;;;;15.81;93.29395;964.4917;;;;
2019/09/16 05:07:48;;;;;;;9;8.1;;;;;;;15.77;93.29785;964.4291;;;;
2019/09/16 05:10:13;;;;;;;9.6;8.5;;;;;;;15.73;93.90527;964.5034;;;;
2019/09/16 05:12:38;;;;;;;9.1;8.3;;;;;;;15.69;93.82813;964.5221;;;;
2019/09/16 05:15:03;;;;;;;9.3;8.4;;;;;;;15.69;94.04883;964.5148;;;;
2019/09/16 05:17:28;;;;;;;9.2;8;;;;;;;15.8;93.28027;964.5353;;;;
2019/09/16 05:19:53;;;;;;;8.5;7.7;;;;;;;15.88;93.25098;964.5159;;;;
2019/09/16 05:22:18;;;;;;;9.1;8.2;;;;;;;15.88;93.08789;964.4542;;;;
2019/09/16 05:24:43;;;;;;;8.9;8.1;;;;;;;15.89;92.91504;964.4389;;;;
2019/09/16 05:27:09;;;;;;;8.8;8;;;;;;;15.9;92.84668;964.4102;;;;
2019/09/16 05:29:34;;;;;;;11.4;8.6;;;;;;;15.88;92.9248;964.4255;;;;
2019/09/16 05:31:59;;;;;;;10.3;8.2;;;;;;;15.82;93.08789;964.4361;;;;
2019/09/16 05:34:24;;;;;;;9.8;8.4;;;;;;;15.83;93.66016;964.4147;;;;
2019/09/16 05:36:49;;;;;;;10.3;8.2;;;;;;;15.85;93.47754;964.445;;;;
2019/09/16 05:39:14;;;;;;;12.6;9.5;;;;;;;15.62;95.26563;964.4754;;;;
2019/09/16 05:41:39;;;;;;;12.3;8.8;;;;;;;15.68;94.78027;964.4991;;;;
2019/09/16 05:44:04;;;;;;;9.9;8.3;;;;;;;15.89;93.25293;964.5581;;;;
2019/09/16 05:46:30;;;;;;;10.5;8.6;;;;;;;16.07;92.58008;964.495;;;;
2019/09/16 05:48:55;;;;;;;9.6;8.1;;;;;;;16.12;92.20605;964.4902;;;;
2019/09/16 05:51:20;;;;;;;10.2;8.6;;;;;;;16;93.29883;964.4377;;;;
2019/09/16 05:53:45;;;;;;;10.1;8.4;;;;;;;15.99;93.02832;964.4648;;;;
2019/09/16 05:56:11;;;;;;;11.1;8.2;;;;;;;16.03;93.06152;964.4981;;;;
2019/09/16 05:58:36;;;;;;;10.5;8.5;;;;;;;15.93;93.68164;964.5162;;;;
2019/09/16 06:01:01;;;;;;;9.5;8.4;;;;;;;15.97;94.08496;964.5066;;;;
2019/09/16 06:03:26;;;;;;;9.6;7.9;;;;;;;16.22;92.40039;964.4892;;;;
2019/09/16 06:05:51;;;;;;;9.2;8.2;;;;;;;16.25;92.54785;964.4943;;;;
2019/09/16 06:08:17;;;;;;;9;8;;;;;;;16.39;92.07617;964.5112;;;;
2019/09/16 06:10:42;;;;;;;8.7;7.8;;;;;;;16.42;91.89551;964.485;;;;
2019/09/16 06:13:07;;;;;;;9.1;8;;;;;;;16.53;91.13574;964.4913;;;;
2019/09/16 06:15:32;;;;;;;8.4;7.6;;;;;;;16.48;92.01367;964.502;;;;
2019/09/16 06:17:57;;;;;;;11.5;9.2;;;;;;;16.43;92.375;964.5115;;;;
2019/09/16 06:20:22;;;;;;;10.9;8;;;;;;;16.55;92.21484;964.5105;;;;
2019/09/16 06:22:48;;;;;;;11;7.9;;;;;;;16.62;91.55371;964.5212;;;;
2019/09/16 06:25:22;;;;;;;9.3;8;;;;;;;16.71;90.86035;964.4705;;;;
2019/09/16 06:27:47;;;;;;;12.2;8.1;;;;;;;16.79;90.33789;964.4654;;;;
2019/09/16 06:30:12;;;;;;;10.9;8.7;;;;;;;16.88;90.7666;964.4623;;;;
2019/09/16 06:32:37;;;;;;;13;8.6;;;;;;;16.84;90.37207;964.5059;;;;
2019/09/16 06:35:02;;;;;;;13;8.5;;;;;;;16.86;90.18945;964.4523;;;;
2019/09/16 06:37:28;;;;;;;12.6;7.9;;;;;;;16.92;90.42383;964.5126;;;;
2019/09/16 06:39:53;;;;;;;8.8;7.6;;;;;;;16.98;89.99121;964.5341;;;;
2019/09/16 06:42:18;;;;;;;9.5;7.3;;;;;;;17.07;89.00684;964.5226;;;;
2019/09/16 06:44:43;;;;;;;8.4;7.6;;;;;;;17.17;89.64648;964.5627;;;;
2019/09/16 06:47:08;;;;;;;8.7;7.8;;;;;;;17.17;89.64648;964.5989;;;;
2019/09/16 06:49:33;;;;;;;11.2;7.9;;;;;;;17.13;89.88184;964.6167;;;;
2019/09/16 06:51:58;;;;;;;11.8;8;;;;;;;17.11;89.91504;964.6267;;;;
2019/09/16 06:54:23;;;;;;;8.2;7.3;;;;;;;17.25;89.23047;964.6803;;;;
2019/09/16 06:56:48;;;;;;;9.2;8.2;;;;;;;17.21;91.16113;964.603;;;;
2019/09/16 06:59:14;;;;;;;8.8;7.3;;;;;;;17.32;89.57227;964.5768;;;;
2019/09/16 07:01:39;;;;;;;10.7;7.6;;;;;;;17.5;89.64355;964.595;;;;
2019/09/16 07:04:04;;;;;;;9.5;7.7;;;;;;;17.55;88.77734;964.6319;;;;
2019/09/16 07:06:29;;;;;;;10.9;7.5;;;;;;;17.67;87.72461;964.6369;;;;
2019/09/16 07:08:54;;;;;;;9.2;7.1;;;;;;;17.78;88.2959;964.6536;;;;
2019/09/16 07:11:19;;;;;;;8.4;7.1;;;;;;;17.84;88.21484;964.5801;;;;
2019/09/16 07:13:44;;;;;;;7.3;6.1;;;;;;;17.89;88.30566;964.6033;;;;
2019/09/16 07:16:09;;;;;;;6.8;6.1;;;;;;;17.91;88.43848;964.6014;;;;
2019/09/16 07:18:34;;;;;;;7.3;6.3;;;;;;;18.01;87.16016;964.6057;;;;
2019/09/16 07:21:00;;;;;;;8.4;6.5;;;;;;;18;89.20703;964.6186;;;;
2019/09/16 07:23:25;;;;;;;7;6.2;;;;;;;18.11;86.43262;964.6143;;;;
2019/09/16 07:25:50;;;;;;;6.2;5.6;;;;;;;18.22;86.47461;964.6439;;;;
2019/09/16 07:28:15;;;;;;;8.5;6.3;;;;;;;18.36;85.76465;964.663;;;;
2019/09/16 07:30:40;;;;;;;6.8;6;;;;;;;18.46;85.16113;964.696;;;;
2019/09/16 07:33:05;;;;;;;6.3;5.7;;;;;;;18.58;85.08008;964.7203;;;;
2019/09/16 07:35:30;;;;;;;7.4;6.7;;;;;;;18.6;84.79199;964.7042;;;;
2019/09/16 07:37:56;;;;;;;6.8;5.6;;;;;;;18.61;84.73535;964.678;;;;
2019/09/16 07:40:20;;;;;;;7.7;6;;;;;;;18.66;85.23828;964.6801;;;;
2019/09/16 07:42:46;;;;;;;7.9;5.9;;;;;;;18.74;84.86523;964.6917;;;;
2019/09/16 07:45:11;;;;;;;8.4;6.1;;;;;;;18.78;84.22852;964.712;;;;
2019/09/16 07:47:36;;;;;;;6.5;5.4;;;;;;;18.9;84.19238;964.6785;;;;
2019/09/16 07:50:01;;;;;;;7.9;6;;;;;;;18.9;84.14551;964.7363;;;;
2019/09/16 07:52:26;;;;;;;8;5.7;;;;;;;18.96;83.95605;964.7756;;;;
2019/09/16 07:54:51;;;;;;;7.8;5.6;;;;;;;19.12;83.17871;964.7633;;;;
2019/09/16 07:57:16;;;;;;;7.7;5.4;;;;;;;19.16;83.4668;964.7581;;;;
2019/09/16 07:59:41;;;;;;;6.6;5.4;;;;;;;19.2;83.4502;964.7347;;;;
2019/09/16 08:02:06;;;;;;;6;5.2;;;;;;;19.31;83.22461;964.7811;;;;
2019/09/16 08:04:31;;;;;;;7.6;5.5;;;;;;;19.36;83.15234;964.7511;;;;
2019/09/16 08:06:57;;;;;;;5.4;5;;;;;;;19.44;82.83887;964.69;;;;
2019/09/16 08:09:22;;;;;;;6;5.4;;;;;;;19.6;81.81152;964.6566;;;;
2019/09/16 08:11:47;;;;;;;6.5;5.4;;;;;;;19.69;81.85156;964.6372;;;;
2019/09/16 08:14:12;;;;;;;5.6;5.1;;;;;;;19.75;81.66309;964.6342;;;;
2019/09/16 08:16:37;;;;;;;5.2;4.7;;;;;;;19.77;81.97168;964.6768;;;;
2019/09/16 08:19:02;;;;;;;5.9;5.3;;;;;;;19.75;82.11035;964.6747;;;;
2019/09/16 08:21:27;;;;;;;5.9;5.3;;;;;;;19.81;81.70996;964.6866;;;;
2019/09/16 08:23:53;;;;;;;5.7;5.2;;;;;;;19.87;81.75488;964.6869;;;;
2019/09/16 08:26:18;;;;;;;7;5.3;;;;;;;19.93;81.61426;964.5871;;;;
2019/09/16 08:28:43;;;;;;;6.5;5.5;;;;;;;20.09;80.95996;964.6021;;;;
2019/09/16 08:31:08;;;;;;;6.1;5.5;;;;;;;20.09;80.80859;964.505;;;;
2019/09/16 08:33:33;;;;;;;6.3;5.7;;;;;;;20.04;81.38867;964.4644;;;;
2019/09/16 08:35:59;;;;;;;5.5;5;;;;;;;20.03;81.58496;964.4328;;;;
2019/09/16 08:38:24;;;;;;;8.5;5.7;;;;;;;20.12;80.91992;964.4436;;;;
2019/09/16 08:40:49;;;;;;;5.8;5.2;;;;;;;20.18;81.01172;964.4405;;;;
2019/09/16 08:43:14;;;;;;;6.1;5.5;;;;;;;20.19;81.43848;964.5017;;;;
2019/09/16 08:45:39;;;;;;;7.7;6;;;;;;;20.37;80.45801;964.4963;;;;
2019/09/16 08:48:04;;;;;;;6.3;5.7;;;;;;;20.28;80.97266;964.4601;;;;
2019/09/16 08:50:30;;;;;;;8;5.3;;;;;;;20.42;81.05566;964.4792;;;;
2019/09/16 08:52:55;;;;;;;7.4;5.9;;;;;;;20.49;79.52734;964.4584;;;;
2019/09/16 08:55:20;;;;;;;6.5;5.8;;;;;;;20.54;80.08984;964.3976;;;;
2019/09/16 08:57:45;;;;;;;6.3;5.7;;;;;;;20.66;80.13477;964.4095;;;;
2019/09/16 09:00:10;;;;;;;6.5;5.4;;;;;;;20.67;80.03223;964.3887;;;;
2019/09/16 09:02:36;;;;;;;6.7;6;;;;;;;20.72;79.91016;964.3615;;;;
2019/09/16 09:05:01;;;;;;;6.2;5.6;;;;;;;20.84;79.57813;964.3367;;;;
2019/09/16 09:07:26;;;;;;;7.5;6;;;;;;;20.84;79.07324;964.3664;;;;
2019/09/16 09:09:51;;;;;;;7.5;5.9;;;;;;;20.77;80.58008;964.4213;;;;
2019/09/16 09:12:16;;;;;;;8.9;5.6;;;;;;;20.95;79.55371;964.5009;;;;
2019/09/16 09:14:42;;;;;;;7.6;6.4;;;;;;;20.79;79.19238;964.3943;;;;
2019/09/16 09:17:07;;;;;;;6.3;5.7;;;;;;;20.86;79.72266;964.4417;;;;
2019/09/16 09:19:32;;;;;;;7.5;5.4;;;;;;;21.02;78.18555;964.3656;;;;
2019/09/16 09:21:57;;;;;;;10.3;6;;;;;;;20.93;78.87695;964.313;;;;
2019/09/16 09:24:22;;;;;;;6.7;5.7;;;;;;;21;77.78125;964.289;;;;
2019/09/16 09:26:47;;;;;;;6.1;5.6;;;;;;;21.01;79.17285;964.2458;;;;
2019/09/16 09:29:13;;;;;;;6.4;5.8;;;;;;;20.98;78.18945;964.2411;;;;
2019/09/16 09:31:38;;;;;;;6.7;5.4;;;;;;;21.03;78.66895;964.2147;;;;
2019/09/16 09:34:03;;;;;;;6.7;5.7;;;;;;;21.14;77.55762;964.1334;;;;
2019/09/16 09:36:28;;;;;;;6.3;5.7;;;;;;;21.24;76.37207;964.1128;;;;
2019/09/16 09:38:53;;;;;;;5.1;4.7;;;;;;;21.46;76.72949;964.1163;;;;
2019/09/16 09:41:18;;;;;;;5.9;4.6;;;;;;;21.42;77.2168;964.0516;;;;
2019/09/16 09:43:43;;;;;;;6;5.3;;;;;;;21.39;76.70605;963.9874;;;;
2019/09/16 09:46:08;;;;;;;5.9;4.7;;;;;;;21.42;76.76855;963.956;;;;
2019/09/16 09:48:33;;;;;;;6.1;4.9;;;;;;;21.5;75.85059;964.012;;;;
2019/09/16 09:50:58;;;;;;;6.4;4.3;;;;;;;21.56;74.75;964.0285;;;;
2019/09/16 09:53:23;;;;;;;6.3;4.4;;;;;;;21.64;75.04883;963.973;;;;
2019/09/16 09:55:48;;;;;;;6.5;5.1;;;;;;;21.67;75.43066;963.9719;;;;
2019/09/16 09:58:13;;;;;;;6.7;6;;;;;;;21.86;74.35254;963.9634;;;;
2019/09/16 10:00:38;;;;;;;5.9;5.3;;;;;;;21.78;75.50977;963.926;;;;
2019/09/16 10:03:04;;;;;;;7.4;5;;;;;;;21.87;73.89551;963.9375;;;;
2019/09/16 10:05:29;;;;;;;8.9;8;;;;;;;21.87;74.25977;963.9177;;;;
2019/09/16 10:07:54;;;;;;;4.9;4.5;;;;;;;21.96;74.16797;963.8489;;;;
2019/09/16 10:10:19;;;;;;;4.8;3.8;;;;;;;21.93;74.27148;963.8527;;;;
2019/09/16 10:12:44;;;;;;;6.3;5;;;;;;;22.12;72.6123;963.8474;;;;
2019/09/16 10:15:09;;;;;;;5.4;3.7;;;;;;;22.13;72.89746;963.8312;;;;
2019/09/16 10:17:34;;;;;;;4.2;3.8;;;;;;;22.17;72.72852;963.8633;;;;
2019/09/16 10:19:59;;;;;;;4.3;3.5;;;;;;;22.37;72.55859;963.8759;;;;
2019/09/16 10:22:24;;;;;;;4.9;3.7;;;;;;;22.28;72.85254;963.8776;;;;
2019/09/16 10:24:50;;;;;;;6.9;3.9;;;;;;;22.37;72.81836;963.8533;;;;
2019/09/16 10:27:16;;;;;;;4.4;3.5;;;;;;;22.53;72.34766;963.8137;;;;
2019/09/16 10:29:41;;;;;;;4.9;3.7;;;;;;;22.63;71.42969;963.8297;;;;
2019/09/16 10:32:06;;;;;;;4.6;3.6;;;;;;;22.67;70.72852;963.7966;;;;
2019/09/16 10:34:31;;;;;;;5.1;3.9;;;;;;;22.67;71.69727;963.7672;;;;
2019/09/16 10:36:57;;;;;;;4.5;3.3;;;;;;;22.71;72.62598;963.7558;;;;
2019/09/16 10:39:22;;;;;;;4.8;3.7;;;;;;;22.97;70.20605;963.7186;;;;
2019/09/16 10:41:47;;;;;;;5.5;4;;;;;;;22.9;70.12305;963.67;;;;
2019/09/16 10:44:12;;;;;;;4.9;3.6;;;;;;;22.85;71.5957;963.7076;;;;
2019/09/16 10:46:38;;;;;;;5.7;4.1;;;;;;;22.89;70.96191;963.6713;;;;
2019/09/16 10:49:03;;;;;;;3.9;3.6;;;;;;;23.13;69.2832;963.6019;;;;
2019/09/16 10:51:28;;;;;;;4.1;3.7;;;;;;;23.1;69.71582;963.6092;;;;
2019/09/16 10:53:53;;;;;;;4.6;3.8;;;;;;;23.24;68.62695;963.5606;;;;
2019/09/16 10:56:18;;;;;;;4.5;3.3;;;;;;;23.32;68.30566;963.5748;;;;
2019/09/16 10:58:44;;;;;;;4.4;3.4;;;;;;;23.32;68.83887;963.5772;;;;
2019/09/16 11:01:09;;;;;;;3.4;3.1;;;;;;;23.43;68.70313;963.5736;;;;
2019/09/16 11:03:34;;;;;;;5.8;3.9;;;;;;;23.34;67.88379;963.6016;;;;
2019/09/16 11:05:59;;;;;;;4.9;3.7;;;;;;;23.51;68.00391;963.5807;;;;
2019/09/16 11:08:24;;;;;;;4.3;3.5;;;;;;;23.66;67.88477;963.5844;;;;
2019/09/16 11:10:49;;;;;;;6.8;4.3;;;;;;;23.86;65.85059;963.5935;;;;
2019/09/16 11:13:14;;;;;;;5.5;5;;;;;;;23.92;65.81152;963.5221;;;;
2019/09/16 11:15:39;;;;;;;4;3.6;;;;;;;24;66.27539;963.4758;;;;
2019/09/16 11:18:05;;;;;;;5.9;3.5;;;;;;;24.11;63.94043;963.4725;;;;
2019/09/16 11:20:30;;;;;;;3.4;2.7;;;;;;;24.34;63.52344;963.4451;;;;
2019/09/16 11:22:55;;;;;;;4.4;4;;;;;;;24.6;62.44238;963.4297;;;;
2019/09/16 11:25:21;;;;;;;3.2;2.8;;;;;;;24.59;62.31152;963.4341;;;;
2019/09/16 11:27:46;;;;;;;4.8;3.7;;;;;;;24.55;61.38965;963.3663;;;;
2019/09/16 11:30:12;;;;;;;4.5;3.7;;;;;;;24.51;62.45313;963.2997;;;;
2019/09/16 11:32:37;;;;;;;3.4;2.8;;;;;;;24.53;62.74219;963.3409;;;;
2019/09/16 11:35:02;;;;;;;3.4;2.7;;;;;;;24.6;61.20801;963.2719;;;;
2019/09/16 11:37:27;;;;;;;3.4;3.1;;;;;;;24.69;61.96582;963.2471;;;;
2019/09/16 11:39:56;;;;;;;3;2.5;;;;;;;25.02;60.9668;963.1483;;;;
2019/09/16 11:42:18;;;;;;;3.2;2.9;;;;;;;24.95;60.87402;963.137;;;;
2019/09/16 11:44:43;;;;;;;3.1;2.8;;;;;;;24.92;62.19043;963.123;;;;
2019/09/16 11:47:08;;;;;;;3.4;2.8;;;;;;;25.07;61.16406;963.12;;;;
2019/09/16 11:49:33;;;;;;;3.1;2.6;;;;;;;25.14;60.74609;963.0542;;;;
2019/09/16 11:51:58;;;;;;;4;2.7;;;;;;;25.05;61.06738;963.0192;;;;
2019/09/16 11:54:24;;;;;;;3;2.3;;;;;;;25.15;59.7959;962.9653;;;;
2019/09/16 11:56:49;;;;;;;3.5;2.4;;;;;;;25.09;59.09668;962.967;;;;
2019/09/16 11:59:14;;;;;;;3.7;2.3;;;;;;;25.05;59.40137;962.9175;;;;
2019/09/16 12:01:40;;;;;;;3.2;2.3;;;;;;;24.92;61.63086;962.9135;;;;
2019/09/16 12:04:04;;;;;;;2.6;2.4;;;;;;;24.82;60.12988;962.875;;;;
2019/09/16 12:06:30;;;;;;;4.4;2.7;;;;;;;24.82;60.99902;962.8381;;;;
2019/09/16 12:08:55;;;;;;;3.6;2.5;;;;;;;24.78;60.35156;962.8447;;;;
2019/09/16 12:11:20;;;;;;;4.9;2.3;;;;;;;24.65;61.08398;962.8378;;;;
2019/09/16 12:13:46;;;;;;;4;2.3;;;;;;;24.68;61.30078;962.7988;;;;
2019/09/16 12:16:11;;;;;;;5.2;2.4;;;;;;;24.91;60.47656;962.7986;;;;
2019/09/16 12:18:36;;;;;;;5.2;2.4;;;;;;;24.75;60.35938;962.8538;;;;
2019/09/16 12:21:02;;;;;;;5.4;2.7;;;;;;;24.67;59.77832;962.8096;;;;
2019/09/16 12:23:27;;;;;;;3.3;2.3;;;;;;;24.56;60.23926;962.7631;;;;
2019/09/16 12:25:52;;;;;;;3.5;2.2;;;;;;;24.46;60.02246;962.8063;;;;
2019/09/16 12:28:18;;;;;;;3.9;2.3;;;;;;;24.4;59.59863;962.7845;;;;
2019/09/16 12:30:43;;;;;;;4.2;2.3;;;;;;;24.53;59.01172;962.7891;;;;
2019/09/16 12:33:09;;;;;;;2.7;2.1;;;;;;;24.82;58.91895;962.7523;;;;
2019/09/16 12:35:34;;;;;;;3.3;2.2;;;;;;;24.89;58.72656;962.7896;;;;
2019/09/16 12:37:59;;;;;;;4.4;2.4;;;;;;;24.91;58.16992;962.6785;;;;
2019/09/16 12:40:24;;;;;;;3.2;2.2;;;;;;;24.94;58.06641;962.6534;;;;
2019/09/16 12:42:49;;;;;;;2.3;2.1;;;;;;;24.91;58.78809;962.6094;;;;
2019/09/16 12:45:22;;;;;;;6.4;3;;;;;;;24.81;61.2832;962.5577;;;;
2019/09/16 12:47:40;;;;;;;4.9;2.9;;;;;;;24.89;62.28125;962.5427;;;;
2019/09/16 12:50:05;;;;;;;7.9;3.2;;;;;;;24.89;62.48242;962.5492;;;;
2019/09/16 12:52:30;;;;;;;5.7;3.5;;;;;;;24.76;63.4873;962.4867;;;;
2019/09/16 12:54:55;;;;;;;4.3;3.4;;;;;;;24.92;62.55859;962.4225;;;;
2019/09/16 12:57:20;;;;;;;6.1;3.3;;;;;;;24.92;62.32129;962.4149;;;;
2019/09/16 12:59:46;;;;;;;5.3;3.2;;;;;;;24.86;61.68359;962.3702;;;;
2019/09/16 13:02:11;;;;;;;5.7;3.1;;;;;;;24.91;62.05664;962.3502;;;;
2019/09/16 13:04:36;;;;;;;5;3;;;;;;;25.18;60.97656;962.3995;;;;
2019/09/16 13:07:01;;;;;;;4.1;3;;;;;;;25.33;60.62891;962.4429;;;;
2019/09/16 13:09:26;;;;;;;4.2;2.2;;;;;;;25.14;58.60352;962.3669;;;;
2019/09/16 13:11:52;;;;;;;3.8;2.4;;;;;;;24.96;59.06836;962.365;;;;
2019/09/16 13:14:18;;;;;;;3;1.9;;;;;;;24.98;58.97461;962.3569;;;;
2019/09/16 13:16:43;;;;;;;2.9;2.1;;;;;;;24.9;59.71387;962.3278;;;;
2019/09/16 13:19:08;;;;;;;2.7;2.1;;;;;;;24.79;58.72363;962.2813;;;;
2019/09/16 13:21:33;;;;;;;3.4;2.6;;;;;;;24.6;61.45605;962.4045;;;;
2019/09/16 13:23:58;;;;;;;3.3;2.5;;;;;;;24.62;60.15234;962.3503;;;;
2019/09/16 13:26:24;;;;;;;5.4;2.8;;;;;;;24.66;61.78516;962.3391;;;;
2019/09/16 13:28:49;;;;;;;5.7;3.4;;;;;;;24.56;64.46875;962.3489;;;;
2019/09/16 13:31:14;;;;;;;6.5;3.3;;;;;;;24.46;64.37207;962.2985;;;;
2019/09/16 13:33:40;;;;;;;6.3;3.3;;;;;;;24.3;65.51172;962.305;;;;
2019/09/16 13:36:05;;;;;;;8.2;3.2;;;;;;;24.4;64.25586;962.2767;;;;
2019/09/16 13:38:30;;;;;;;5.1;3.3;;;;;;;24.44;63.81055;962.3336;;;;
2019/09/16 13:40:55;;;;;;;4.1;2.9;;;;;;;24.53;63.4668;962.2556;;;;
2019/09/16 13:43:20;;;;;;;5.3;3.3;;;;;;;24.48;63.55371;962.2541;;;;
2019/09/16 13:45:46;;;;;;;4.9;3.3;;;;;;;24.34;63.6543;962.261;;;;
2019/09/16 13:48:11;;;;;;;4.6;3.3;;;;;;;24.39;63.73145;962.2073;;;;
2019/09/16 13:50:36;;;;;;;4.2;3.3;;;;;;;24.37;63.39648;962.1063;;;;
2019/09/16 13:53:01;;;;;;;5.8;3.3;;;;;;;24.59;63.3916;962.0622;;;;
2019/09/16 13:55:26;;;;;;;4.1;3.2;;;;;;;24.7;62.48145;961.9733;;;;
2019/09/16 13:57:51;;;;;;;3.2;2.9;;;;;;;24.77;62.2627;961.9853;;;;
2019/09/16 14:00:17;;;;;;;4.4;3.2;;;;;;;24.7;62.41992;962.0168;;;;
2019/09/16 14:02:43;;;;;;;4.1;3;;;;;;;24.9;61.56836;962.0461;;;;
2019/09/16 14:05:08;;;;;;;3.9;3.5;;;;;;;24.81;62.38867;962.0692;;;;
2019/09/16 14:07:33;;;;;;;4.8;3.2;;;;;;;24.89;62.09082;962.0389;;;;
2019/09/16 14:09:58;;;;;;;4;3.4;;;;;;;24.72;62.55469;961.9694;;;;
2019/09/16 14:12:23;;;;;;;4.5;3.1;;;;;;;24.81;62.73438;962.0016;;;;
2019/09/16 14:14:48;;;;;;;3.7;3.1;;;;;;;24.75;62.55859;962.0167;;;;